createdAt,value
2018-09-09T01:19:33.855Z,3.50
2018-09-09T01:21:36.058Z,3.40
2018-09-09T01:23:38.381Z,3.50
2018-09-09T01:25:40.585Z,3.83
2018-09-09T01:27:42.672Z,3.37
2018-09-09T01:29:44.758Z,2.83
2018-09-09T01:31:46.881Z,3.80
2018-09-09T01:33:48.997Z,3.50
2018-09-09T01:35:51.058Z,3.80
2018-09-09T01:37:53.122Z,3.77
2018-09-09T01:39:55.156Z,3.33
2018-09-09T01:41:57.200Z,3.50
2018-09-09T01:43:59.275Z,3.90
2018-09-09T01:46:01.346Z,3.37
2018-09-09T01:48:03.565Z,3.20
2018-09-09T01:50:05.718Z,3.40
2018-09-09T01:52:07.816Z,3.83
2018-09-09T01:54:09.885Z,4.10
2018-09-09T01:56:12.029Z,3.70
2018-09-09T01:58:14.070Z,4.07
2018-09-09T02:00:16.138Z,3.73
2018-09-09T02:02:18.190Z,3.60
2018-09-09T02:04:20.237Z,3.77
2018-09-09T02:06:22.313Z,3.60
2018-09-09T02:08:24.409Z,3.67
2018-09-09T02:10:26.436Z,3.60
2018-09-09T02:12:28.582Z,3.70
2018-09-09T02:14:30.721Z,3.67
2018-09-09T02:16:32.821Z,4.10
2018-09-09T02:18:34.982Z,3.83
2018-09-09T02:20:37.123Z,3.97
2018-09-09T02:22:39.261Z,3.73
2018-09-09T02:24:41.338Z,3.80
2018-09-09T02:26:43.377Z,3.80
2018-09-09T02:28:45.441Z,4.40
2018-09-09T02:30:47.465Z,3.30
2018-09-09T02:32:49.536Z,3.87
2018-09-09T02:34:51.594Z,3.60
2018-09-09T02:36:53.641Z,3.40
2018-09-09T02:38:55.745Z,3.47
2018-09-09T02:40:57.805Z,3.70
2018-09-09T02:42:59.877Z,3.90
2018-09-09T02:45:01.961Z,3.70
2018-09-09T02:47:03.993Z,3.67
2018-09-09T02:49:06.078Z,3.83
2018-09-09T02:51:08.125Z,3.80
2018-09-09T02:53:10.184Z,3.53
2018-09-09T02:55:12.209Z,3.90
2018-09-09T02:57:14.270Z,4.00
2018-09-09T02:59:16.322Z,4.47
2018-09-09T03:01:18.373Z,3.60
2018-09-09T03:03:20.432Z,3.67
2018-09-09T03:05:22.536Z,3.70
2018-09-09T03:07:24.614Z,3.47
2018-09-09T03:09:26.700Z,4.10
2018-09-09T03:11:28.761Z,4.00
2018-09-09T03:13:30.799Z,4.20
2018-09-09T03:15:32.881Z,4.20
2018-09-09T03:17:34.922Z,4.00
2018-09-09T03:19:37.012Z,4.13
2018-09-09T03:21:39.107Z,4.10
2018-09-09T03:23:43.761Z,4.43
2018-09-09T03:25:46.134Z,4.30
2018-09-09T03:27:48.182Z,3.77
2018-09-09T03:29:50.290Z,4.03
2018-09-09T03:31:52.374Z,3.73
2018-09-09T03:33:54.473Z,5.00
2018-09-09T03:35:56.618Z,4.00
2018-09-09T03:37:58.673Z,4.00
2018-09-09T03:40:00.742Z,4.00
2018-09-09T03:42:02.782Z,4.40
2018-09-09T03:44:04.849Z,5.00
2018-09-09T03:46:06.908Z,3.70
2018-09-09T03:48:09.012Z,5.13
2018-09-09T03:50:11.061Z,4.73
2018-09-09T03:52:13.089Z,3.70
2018-09-09T03:54:15.141Z,3.97
2018-09-09T03:56:17.177Z,4.30
2018-09-09T03:58:19.272Z,3.70
2018-09-09T04:00:21.325Z,4.80
2018-09-09T04:02:23.362Z,4.63
2018-09-09T04:04:25.412Z,4.30
2018-09-09T04:06:27.477Z,4.10
2018-09-09T04:08:29.529Z,3.90
2018-09-09T04:10:31.605Z,4.20
2018-09-09T04:12:33.657Z,4.00
2018-09-09T04:14:35.708Z,4.53
2018-09-09T04:16:37.745Z,3.70
2018-09-09T04:18:40.701Z,3.77
2018-09-09T04:20:42.737Z,4.90
2018-09-09T04:22:44.794Z,4.00
2018-09-09T04:24:46.840Z,4.60
2018-09-09T04:26:49.019Z,4.40
2018-09-09T04:28:51.031Z,5.20
2018-09-09T04:30:53.181Z,4.17
2018-09-09T04:32:55.221Z,3.50
2018-09-09T04:34:57.274Z,3.77
2018-09-09T04:36:59.342Z,4.10
2018-09-09T04:39:01.393Z,4.40
2018-09-09T04:41:03.457Z,4.63
2018-09-09T04:43:05.513Z,4.07
2018-09-09T04:45:07.575Z,3.80
2018-09-09T04:47:09.614Z,4.30
2018-09-09T04:49:11.690Z,4.27
2018-09-09T04:51:13.746Z,4.90
2018-09-09T04:53:15.798Z,4.37
2018-09-09T04:55:17.851Z,4.40
2018-09-09T04:57:19.905Z,4.40
2018-09-09T05:01:52.670Z,3.90
2018-09-09T05:03:54.725Z,4.70
2018-09-09T05:05:56.890Z,4.20
2018-09-09T05:07:59.011Z,3.83
2018-09-09T05:10:01.205Z,3.77
2018-09-09T05:12:03.517Z,4.53
2018-09-09T05:14:05.949Z,4.07
2018-09-09T05:16:08.495Z,4.30
2018-09-09T05:18:11.005Z,4.07
2018-09-09T05:20:13.529Z,4.60
2018-09-09T05:22:16.206Z,4.10
2018-09-09T05:24:18.941Z,4.30
2018-09-09T05:26:21.427Z,4.57
2018-09-09T05:28:23.665Z,4.90
2018-09-09T05:30:26.078Z,4.30
2018-09-09T05:32:28.854Z,4.23
2018-09-09T05:34:31.694Z,4.70
2018-09-09T05:36:34.311Z,3.33
2018-09-09T05:38:37.037Z,4.20
2018-09-09T05:40:39.710Z,4.50
2018-09-09T05:42:42.160Z,4.33
2018-09-09T05:44:44.768Z,4.50
2018-09-09T05:46:47.171Z,4.07
2018-09-09T05:48:49.765Z,4.73
2018-09-09T05:50:52.313Z,4.40
2018-09-09T05:52:54.692Z,4.30
2018-09-09T05:54:56.926Z,4.47
2018-09-09T05:56:59.146Z,4.53
2018-09-09T05:59:01.532Z,5.20
2018-09-09T06:01:04.283Z,4.90
2018-09-09T06:03:06.795Z,4.53
2018-09-09T06:05:09.103Z,5.70
2018-09-09T06:07:11.541Z,4.60
2018-09-09T06:09:13.781Z,4.50
2018-09-09T06:11:15.986Z,4.50
2018-09-09T06:13:18.262Z,4.70
2018-09-09T06:15:20.623Z,4.30
2018-09-09T06:17:22.966Z,4.80
2018-09-09T06:19:25.374Z,4.90
2018-09-09T06:21:27.800Z,4.90
2018-09-09T06:23:30.224Z,5.13
2018-09-09T06:25:32.480Z,4.47
2018-09-09T06:27:34.762Z,4.80
2018-09-09T06:29:37.330Z,5.13
2018-09-09T06:31:39.668Z,4.40
2018-09-09T06:33:42.220Z,4.90
2018-09-09T06:35:44.624Z,4.80
2018-09-09T06:37:46.998Z,3.93
2018-09-09T06:39:49.220Z,4.83
2018-09-09T06:41:51.432Z,4.30
2018-09-09T06:43:53.531Z,4.30
2018-09-09T06:45:55.685Z,4.57
2018-09-09T06:47:57.810Z,3.97
2018-09-09T06:49:59.934Z,4.70
2018-09-09T06:52:02.052Z,4.70
2018-09-09T06:54:04.315Z,4.70
2018-09-09T06:56:06.438Z,4.93
2018-09-09T06:58:08.831Z,4.37
2018-09-09T07:00:11.236Z,4.40
2018-09-09T07:02:13.803Z,4.00
2018-09-09T07:04:16.061Z,4.60
2018-09-09T07:06:18.237Z,5.10
2018-09-09T07:08:20.366Z,5.07
2018-09-09T07:10:22.489Z,4.90
2018-09-09T07:12:24.811Z,5.40
2018-09-09T07:14:26.938Z,5.10
2018-09-09T07:16:29.679Z,5.20
2018-09-09T07:18:31.841Z,4.87
2018-09-09T07:20:34.226Z,4.60
2018-09-09T07:22:36.447Z,5.33
2018-09-09T08:39:35.632Z,4.50
2018-09-09T08:41:37.673Z,4.77
2018-09-09T08:43:40.423Z,4.57
2018-09-09T08:45:43.670Z,5.10
2018-09-09T08:47:46.470Z,4.90
2018-09-09T08:49:48.518Z,4.73
2018-09-09T08:51:51.158Z,4.40
2018-09-09T08:53:53.100Z,3.47
2018-09-09T08:55:56.796Z,4.50
2018-09-09T08:57:58.895Z,3.50
2018-09-09T09:00:01.727Z,4.30
2018-09-09T09:02:07.234Z,4.20
2018-09-09T09:04:09.326Z,4.10
2018-09-09T09:06:11.426Z,4.00
2018-09-09T09:08:13.479Z,4.03
2018-09-09T09:10:15.552Z,3.67
2018-09-09T09:12:18.475Z,3.23
2018-09-09T09:14:21.974Z,3.60
2018-09-09T09:16:24.085Z,3.60
2018-09-09T09:18:26.260Z,2.97
2018-09-09T09:20:29.613Z,3.50
2018-09-09T09:22:31.832Z,3.20
2018-09-09T09:24:40.315Z,3.37
2018-09-09T09:26:45.447Z,3.23
2018-09-09T09:28:47.906Z,2.70
2018-09-09T09:30:50.723Z,2.60
2018-09-09T09:32:52.725Z,2.80
2018-09-09T09:34:55.501Z,2.50
2018-09-09T09:36:57.561Z,2.80
2018-09-09T09:39:00.259Z,2.80
2018-09-09T09:41:02.277Z,3.30
2018-09-09T09:43:05.771Z,3.43
2018-09-09T09:45:07.870Z,2.73
2018-09-09T09:47:10.982Z,3.00
2018-09-09T09:49:16.356Z,3.17
2018-09-09T09:51:19.481Z,2.50
2018-09-09T09:53:22.759Z,3.50
2018-09-09T09:55:25.268Z,2.90
2018-09-09T09:57:28.722Z,3.00
2018-09-09T09:59:32.329Z,2.70
2018-09-09T10:01:38.506Z,2.60
2018-09-09T10:03:40.902Z,2.27
2018-09-09T10:05:43.275Z,2.50
2018-09-09T10:07:46.950Z,1.90
2018-09-09T10:09:50.807Z,2.30
2018-09-09T10:11:53.673Z,2.43
2018-09-09T10:13:57.194Z,2.67
2018-09-09T10:16:00.637Z,2.10
2018-09-09T10:18:04.875Z,2.40
2018-09-09T10:20:09.454Z,2.70
2018-09-09T10:22:11.787Z,2.10
2018-09-09T10:24:14.442Z,2.73
2018-09-09T10:26:18.756Z,2.00
2018-09-09T10:28:20.905Z,2.50
2018-09-09T10:30:24.282Z,3.17
2018-09-09T10:32:28.581Z,2.30
2018-09-09T10:34:32.040Z,2.30
2018-09-09T10:36:35.134Z,2.80
2018-09-09T10:38:37.749Z,1.90
2018-09-09T10:40:39.985Z,2.20
2018-09-09T10:42:42.062Z,2.20
2018-09-09T10:44:44.129Z,2.10
2018-09-09T10:46:46.374Z,2.37
2018-09-09T10:48:48.490Z,2.67
2018-09-09T10:50:50.559Z,2.50
2018-09-09T10:52:52.625Z,2.60
2018-09-09T10:54:54.673Z,2.53
2018-09-09T10:56:56.790Z,2.63
2018-09-09T10:58:58.846Z,2.50
2018-09-09T11:01:00.937Z,2.80
2018-09-09T11:03:02.982Z,2.40
2018-09-09T11:05:05.150Z,2.90
2018-09-09T11:07:08.866Z,2.80
2018-09-09T11:09:10.954Z,2.80
2018-09-09T11:11:12.999Z,3.07
2018-09-09T11:13:15.099Z,2.70
2018-09-09T11:15:17.197Z,2.73
2018-09-09T11:17:19.264Z,2.90
2018-09-09T11:19:21.414Z,2.27
2018-09-09T11:21:23.490Z,2.30
2018-09-09T11:23:25.554Z,2.70
2018-09-09T11:25:27.634Z,2.00
2018-09-09T11:27:29.709Z,2.50
2018-09-09T11:29:31.830Z,2.20
2018-09-09T11:31:33.903Z,2.80
2018-09-09T11:33:36.050Z,3.00
2018-09-09T11:35:38.138Z,2.40
2018-09-09T11:37:40.202Z,2.70
2018-09-09T11:39:42.293Z,2.10
2018-09-09T11:41:44.359Z,2.30
2018-09-09T11:43:46.473Z,3.00
2018-09-09T11:45:48.554Z,3.03
2018-09-09T11:47:50.641Z,3.50
2018-09-09T11:49:52.709Z,3.03
2018-09-09T11:51:54.801Z,2.60
2018-09-09T11:53:56.870Z,2.90
2018-09-09T11:55:59.012Z,2.63
2018-09-09T11:58:01.097Z,3.10
2018-09-09T12:00:03.457Z,3.10
2018-09-09T12:02:05.653Z,3.20
2018-09-09T12:04:07.734Z,2.73
2018-09-09T12:06:09.860Z,2.60
2018-09-09T12:08:12.018Z,2.50
2018-09-09T12:10:14.158Z,2.70
2018-09-09T12:12:16.622Z,2.50
2018-09-09T12:14:18.738Z,2.67
2018-09-09T12:16:20.914Z,2.40
2018-09-09T12:18:23.063Z,2.30
2018-09-09T12:20:25.152Z,2.30
2018-09-09T12:22:27.221Z,2.70
2018-09-09T12:24:29.355Z,2.67
2018-09-09T12:26:31.486Z,2.60
2018-09-09T12:28:33.668Z,2.40
2018-09-09T12:30:35.794Z,2.77
2018-09-09T12:32:37.960Z,2.30
2018-09-09T12:34:39.971Z,2.40
2018-09-09T12:36:42.129Z,2.10
2018-09-09T12:38:44.213Z,2.10
2018-09-09T12:40:46.298Z,2.40
2018-09-09T12:42:55.793Z,2.90
2018-09-09T12:45:03.640Z,2.43
2018-09-09T12:47:11.515Z,2.27
2018-09-09T12:49:13.557Z,2.60
2018-09-09T12:51:15.727Z,2.33
2018-09-09T12:53:17.969Z,2.67
2018-09-09T12:55:20.050Z,2.80
2018-09-09T12:57:22.199Z,2.60
2018-09-09T12:59:24.315Z,2.23
2018-09-09T13:01:26.858Z,2.40
2018-09-09T13:03:28.980Z,2.30
2018-09-09T13:05:31.091Z,2.70
2018-09-09T13:07:33.159Z,2.20
2018-09-09T13:09:35.246Z,2.37
2018-09-09T13:11:37.339Z,2.23
2018-09-09T13:13:39.449Z,2.90
2018-09-09T13:15:41.645Z,2.20
2018-09-09T13:17:43.762Z,2.60
2018-09-09T13:19:46.494Z,2.13
2018-09-09T13:21:48.775Z,2.90
2018-09-09T13:23:50.865Z,2.43
2018-09-09T13:25:52.966Z,2.40
2018-09-09T13:27:55.136Z,2.43
2018-09-09T13:29:57.275Z,2.50
2018-09-09T13:31:59.402Z,2.77
2018-09-09T13:34:01.466Z,2.30
2018-09-09T13:36:03.692Z,2.60
2018-09-09T13:38:05.756Z,3.03
2018-09-09T13:40:07.842Z,2.90
2018-09-09T13:42:09.946Z,2.47
2018-09-09T13:44:12.136Z,3.30
2018-09-09T13:46:14.287Z,2.73
2018-09-09T13:48:17.648Z,2.40
2018-09-09T13:50:20.143Z,2.20
2018-09-09T13:52:22.992Z,2.70
2018-09-09T13:54:26.583Z,2.23
2018-09-09T13:56:28.662Z,2.73
2018-09-09T13:58:32.065Z,2.80
2018-09-09T14:00:34.249Z,2.93
2018-09-09T14:02:36.438Z,2.77
2018-09-09T14:04:42.509Z,3.03
2018-09-09T14:06:44.581Z,3.00
2018-09-09T14:08:48.850Z,2.60
2018-09-09T14:10:50.922Z,3.77
2018-09-09T14:12:53.916Z,2.67
2018-09-09T14:14:58.272Z,2.90
2018-09-09T14:17:00.451Z,3.30
2018-09-09T14:19:02.469Z,2.77
2018-09-09T14:21:04.598Z,2.80
2018-09-09T14:23:06.709Z,2.63
2018-09-09T14:25:08.818Z,2.53
2018-09-09T14:27:11.028Z,3.67
2018-09-09T14:29:13.159Z,2.60
2018-09-09T14:31:15.300Z,2.40
2018-09-09T14:33:17.490Z,2.70
2018-09-09T14:35:20.662Z,3.77
2018-09-09T14:37:23.474Z,3.03
